Αρχική σελίδα
METAR-TAF:

METAR-TAF

Αεροδρόμια :

Pohnpei, Μικρονησία

γεωγραφικό πλάτος: 06-59N, γεωγραφικό μήκος: 158-12E, υψόμετρο: 2 μ

Παρών καιρός

Η αναφορά έγινε 19 λεπτά πριν, στις 03:50 UTC
Άνεμος 8 kt από Α
Θερμοκρασία 32°C
Υγρασία 71%
Πίεση 1007 hPa
Ορατότητα: 24.1 χλμ
Διάσπαρτα νέφη σε ύψος 1800 πόδια
Αρκετά νέφη σε ύψος 30000 πόδια

METAR: PTPN 110350Z 08008KT 15SM SCT018 BKN300 32/26 A2973

Χρόνος: 15:09 (04:09 UTC)

Πρόγνωση Καιρού

Η αναφορά έγινε 4 ώρες και 44 λεπτά πριν, στις 23:25 UTC
Η πρόγνωση ισχύει από τις 11 στις 00 UTC έως τις 11 στις 24 UTC
Άνεμος 14 kt από Α
Ορατότητα: 10 χλμ
Λίγα νέφη σε ύψος 1800 πόδια
Διάσπαρτα νέφη σε ύψος 10000 πόδια
Όμβροι σε κοντινή απόσταση

TAF: PTPN 102325Z 1100/1124 10014KT P6SM VCSH FEW018 SCT100

Μετεωρολογικές αναφορές και προγνώσεις για περισσότερα από 4000 αεροδρόμια (δελτία METAR και TAF).

Οι διαθέσιμοι σταθμοί απεικονίζονται στο χάρτη με κίτρινες και κόκκινες κουκκίδες.

Μετακινήστε το ποντίκι πάνω από τις κουκκίδες για να δείτε το όνομα του σταθμού.

Στη συνέχεια, κάντε κλικ για να δείτε τις μετεωρολογικές αναφορές και τις προγνώσεις καιρού.

Για να αλλάξετε το χάρτη: κάντε κλικ στα πράσινα κουμπιά με τον μαύρο σταυρό για να ζουμάρετε, στο πράσινο κουμπί με την παύλα για να αφαιρέσετε το ζουμ ή στα πράσινα βέλη για να αντιπαραβάλλετε χάρτες.


METAR-TAF: